world map with ENC marked

ENC - Airport

This information may not be accurate or current and is not valid for navigation or flight planning. No warranty of fitness for any purpose is made or implied.

flag of Lorraineflag of France

Donate via PayPal

Additional information is available on the NEW Great Circle Mapper

Location
City:  Nancy, Lorraine, France
Name:Essey
ICAO / IATA:LFSN / ENC

Details
Type:Airport (Aerodrome, Airfield)
Use:Public/Civil
Latitude:48°41'32"N (48.692086)
Longitude:6°13'34"E (6.226050)
Elevation:751 ft (229 m)
Runways:2
Longest:4593 × 131 ft (1400 × 40 m)

Time
Timezone:UTC+1 (DST+4)
Local Time:

Weather
METAR:LFSN  041400Z AUTO 15005KT CAVOK 04/M03 Q1027
TAF:LFSN  (expired)

Related Locations
Nearby:
Farthest:CHT: 12070 mi / 19425 km
Waitangi [Tuuta], CIT, NZ

Find:

   beyond  
but within

Other Information
Maps:
Sources:

  


 


Great Circle Mapper   Great Circle Mapper
Great Circle Mapper FAQ   Great Circle Mapper FAQ
  Karl's Home Page
KLSē   KLSē Home
   GC on Facebook
Airlines of the World   Airlines of the World
Donate via PayPal


Copyright © 2004-2020, Karl L. Swartz. All rights reserved.
All trademarks mentioned herein belong to their respective owners.

Please see credits for attribution and copyright information.

Karl Swartz <karl@kls2.com>
  Powered by FreeBSD
Valid HTML 4.01!
Labeled with ICRA
hCard Microformat
Geo Microformat